sensor_id;sensor_type;location;lat;lon;timestamp;temperature;humidity
10451;DHT22;5273;51.290;6.918;2023-12-07T00:02:12;2.60;99.90
10451;DHT22;5273;51.290;6.918;2023-12-07T00:04:39;2.50;99.90
10451;DHT22;5273;51.290;6.918;2023-12-07T00:07:07;2.50;99.90
10451;DHT22;5273;51.290;6.918;2023-12-07T00:09:34;2.40;99.90
10451;DHT22;5273;51.290;6.918;2023-12-07T00:12:01;2.50;99.90
10451;DHT22;5273;51.290;6.918;2023-12-07T00:14:27;2.40;99.90
10451;DHT22;5273;51.290;6.918;2023-12-07T00:16:54;2.30;99.90
10451;DHT22;5273;51.290;6.918;2023-12-07T00:19:22;2.50;99.90
10451;DHT22;5273;51.290;6.918;2023-12-07T00:21:49;2.40;99.90
10451;DHT22;5273;51.290;6.918;2023-12-07T00:24:17;2.30;99.90
10451;DHT22;5273;51.290;6.918;2023-12-07T00:26:44;2.40;99.90
10451;DHT22;5273;51.290;6.918;2023-12-07T00:29:11;2.30;99.90
10451;DHT22;5273;51.290;6.918;2023-12-07T00:31:38;2.40;99.90
10451;DHT22;5273;51.290;6.918;2023-12-07T00:34:05;2.20;99.90
10451;DHT22;5273;51.290;6.918;2023-12-07T00:36:32;2.30;99.90
10451;DHT22;5273;51.290;6.918;2023-12-07T00:38:59;2.30;99.90
10451;DHT22;5273;51.290;6.918;2023-12-07T00:41:27;2.30;99.90
10451;DHT22;5273;51.290;6.918;2023-12-07T00:43:54;2.30;99.90
10451;DHT22;5273;51.290;6.918;2023-12-07T00:46:21;2.30;99.90
10451;DHT22;5273;51.290;6.918;2023-12-07T00:48:48;2.20;99.90
10451;DHT22;5273;51.290;6.918;2023-12-07T00:51:15;2.30;99.90
10451;DHT22;5273;51.290;6.918;2023-12-07T00:53:42;2.20;99.90
10451;DHT22;5273;51.290;6.918;2023-12-07T00:56:09;2.20;99.90
10451;DHT22;5273;51.290;6.918;2023-12-07T00:58:38;2.20;99.90
10451;DHT22;5273;51.290;6.918;2023-12-07T01:01:05;2.00;99.90
10451;DHT22;5273;51.290;6.918;2023-12-07T01:03:32;1.90;99.90
10451;DHT22;5273;51.290;6.918;2023-12-07T01:05:58;1.90;99.90
10451;DHT22;5273;51.290;6.918;2023-12-07T01:08:25;1.80;99.90
10451;DHT22;5273;51.290;6.918;2023-12-07T01:10:52;1.70;99.90
10451;DHT22;5273;51.290;6.918;2023-12-07T01:13:19;1.70;99.90
10451;DHT22;5273;51.290;6.918;2023-12-07T01:15:48;1.60;99.90
10451;DHT22;5273;51.290;6.918;2023-12-07T01:18:14;1.60;99.90
10451;DHT22;5273;51.290;6.918;2023-12-07T01:20:42;1.70;99.90
10451;DHT22;5273;51.290;6.918;2023-12-07T01:23:09;1.60;99.90
10451;DHT22;5273;51.290;6.918;2023-12-07T01:25:36;1.60;99.90
10451;DHT22;5273;51.290;6.918;2023-12-07T01:28:03;1.60;99.90
10451;DHT22;5273;51.290;6.918;2023-12-07T01:30:30;1.60;99.90
10451;DHT22;5273;51.290;6.918;2023-12-07T01:32:59;1.70;99.90
10451;DHT22;5273;51.290;6.918;2023-12-07T01:35:26;1.60;99.90
10451;DHT22;5273;51.290;6.918;2023-12-07T01:37:54;1.60;99.90
10451;DHT22;5273;51.290;6.918;2023-12-07T01:40:21;1.70;99.90
10451;DHT22;5273;51.290;6.918;2023-12-07T01:42:51;1.60;99.90
10451;DHT22;5273;51.290;6.918;2023-12-07T01:45:18;1.60;99.90
10451;DHT22;5273;51.290;6.918;2023-12-07T01:47:45;1.70;99.90
10451;DHT22;5273;51.290;6.918;2023-12-07T01:50:16;1.80;99.90
10451;DHT22;5273;51.290;6.918;2023-12-07T01:52:51;1.60;99.90
10451;DHT22;5273;51.290;6.918;2023-12-07T01:55:19;1.70;99.90
10451;DHT22;5273;51.290;6.918;2023-12-07T01:57:46;1.50;99.90
10451;DHT22;5273;51.290;6.918;2023-12-07T02:00:15;1.50;99.90
10451;DHT22;5273;51.290;6.918;2023-12-07T02:02:46;1.40;99.90
10451;DHT22;5273;51.290;6.918;2023-12-07T02:05:15;1.40;99.90
10451;DHT22;5273;51.290;6.918;2023-12-07T02:07:42;1.40;99.90
10451;DHT22;5273;51.290;6.918;2023-12-07T02:10:10;1.40;99.90
10451;DHT22;5273;51.290;6.918;2023-12-07T02:12:39;1.40;99.90
10451;DHT22;5273;51.290;6.918;2023-12-07T02:15:07;1.40;99.90
10451;DHT22;5273;51.290;6.918;2023-12-07T02:17:51;1.40;99.90
10451;DHT22;5273;51.290;6.918;2023-12-07T02:20:23;1.60;99.90
10451;DHT22;5273;51.290;6.918;2023-12-07T02:22:53;1.60;99.90
10451;DHT22;5273;51.290;6.918;2023-12-07T02:25:24;1.60;99.90
10451;DHT22;5273;51.290;6.918;2023-12-07T02:27:54;1.50;99.90
10451;DHT22;5273;51.290;6.918;2023-12-07T02:30:23;1.50;99.90
10451;DHT22;5273;51.290;6.918;2023-12-07T02:32:50;1.60;99.90
10451;DHT22;5273;51.290;6.918;2023-12-07T02:35:17;1.60;99.90
10451;DHT22;5273;51.290;6.918;2023-12-07T02:37:47;1.60;99.90
10451;DHT22;5273;51.290;6.918;2023-12-07T02:40:18;1.60;99.90
10451;DHT22;5273;51.290;6.918;2023-12-07T02:42:47;1.80;99.90
10451;DHT22;5273;51.290;6.918;2023-12-07T02:45:15;1.60;99.90
10451;DHT22;5273;51.290;6.918;2023-12-07T02:47:42;1.60;99.90
10451;DHT22;5273;51.290;6.918;2023-12-07T02:50:11;1.70;99.90
10451;DHT22;5273;51.290;6.918;2023-12-07T02:52:38;1.60;99.90
10451;DHT22;5273;51.290;6.918;2023-12-07T02:55:06;1.70;99.90
10451;DHT22;5273;51.290;6.918;2023-12-07T02:57:35;1.80;99.90
10451;DHT22;5273;51.290;6.918;2023-12-07T03:00:02;1.80;99.90
10451;DHT22;5273;51.290;6.918;2023-12-07T03:02:33;1.90;99.90
10451;DHT22;5273;51.290;6.918;2023-12-07T03:05:00;2.10;99.90
10451;DHT22;5273;51.290;6.918;2023-12-07T03:07:27;2.00;99.90
10451;DHT22;5273;51.290;6.918;2023-12-07T03:09:54;2.10;99.90
10451;DHT22;5273;51.290;6.918;2023-12-07T03:12:21;2.20;99.90
10451;DHT22;5273;51.290;6.918;2023-12-07T03:14:48;2.20;99.90
10451;DHT22;5273;51.290;6.918;2023-12-07T03:17:15;2.20;99.90
10451;DHT22;5273;51.290;6.918;2023-12-07T03:19:46;2.10;99.90
10451;DHT22;5273;51.290;6.918;2023-12-07T03:22:13;2.10;99.90
10451;DHT22;5273;51.290;6.918;2023-12-07T03:24:46;2.10;99.90
10451;DHT22;5273;51.290;6.918;2023-12-07T03:27:13;2.10;99.90
10451;DHT22;5273;51.290;6.918;2023-12-07T03:29:40;2.20;99.90
10451;DHT22;5273;51.290;6.918;2023-12-07T03:32:07;2.20;99.90
10451;DHT22;5273;51.290;6.918;2023-12-07T03:34:34;2.30;99.90
10451;DHT22;5273;51.290;6.918;2023-12-07T03:37:02;2.30;99.90
10451;DHT22;5273;51.290;6.918;2023-12-07T03:39:29;2.30;99.90
10451;DHT22;5273;51.290;6.918;2023-12-07T03:41:58;2.40;99.90
10451;DHT22;5273;51.290;6.918;2023-12-07T03:44:25;2.40;99.90
10451;DHT22;5273;51.290;6.918;2023-12-07T03:46:55;2.40;99.90
10451;DHT22;5273;51.290;6.918;2023-12-07T03:49:22;2.50;99.90
10451;DHT22;5273;51.290;6.918;2023-12-07T03:51:51;2.70;99.90
10451;DHT22;5273;51.290;6.918;2023-12-07T03:54:19;2.40;99.90
10451;DHT22;5273;51.290;6.918;2023-12-07T03:56:46;2.50;99.90
10451;DHT22;5273;51.290;6.918;2023-12-07T03:59:13;2.50;99.90
10451;DHT22;5273;51.290;6.918;2023-12-07T04:01:40;2.50;99.90
10451;DHT22;5273;51.290;6.918;2023-12-07T04:04:10;2.60;99.90
10451;DHT22;5273;51.290;6.918;2023-12-07T04:06:37;2.50;99.90
10451;DHT22;5273;51.290;6.918;2023-12-07T04:09:04;2.60;99.90
10451;DHT22;5273;51.290;6.918;2023-12-07T04:11:32;2.60;99.90
10451;DHT22;5273;51.290;6.918;2023-12-07T04:13:59;2.50;99.90
10451;DHT22;5273;51.290;6.918;2023-12-07T04:16:26;2.90;99.90
10451;DHT22;5273;51.290;6.918;2023-12-07T04:18:53;2.70;99.90
10451;DHT22;5273;51.290;6.918;2023-12-07T04:21:20;2.80;99.90
10451;DHT22;5273;51.290;6.918;2023-12-07T04:23:47;2.70;99.90
10451;DHT22;5273;51.290;6.918;2023-12-07T04:26:14;2.70;99.90
10451;DHT22;5273;51.290;6.918;2023-12-07T04:28:42;2.70;99.90
10451;DHT22;5273;51.290;6.918;2023-12-07T04:31:09;2.80;99.90
10451;DHT22;5273;51.290;6.918;2023-12-07T04:33:36;2.80;99.90
10451;DHT22;5273;51.290;6.918;2023-12-07T04:36:05;2.80;99.90
10451;DHT22;5273;51.290;6.918;2023-12-07T04:38:35;2.80;99.90
10451;DHT22;5273;51.290;6.918;2023-12-07T04:41:02;2.80;99.90
10451;DHT22;5273;51.290;6.918;2023-12-07T04:43:30;2.80;99.90
10451;DHT22;5273;51.290;6.918;2023-12-07T04:45:59;2.80;99.90
10451;DHT22;5273;51.290;6.918;2023-12-07T04:48:26;2.80;99.90
10451;DHT22;5273;51.290;6.918;2023-12-07T04:50:53;2.90;99.90
10451;DHT22;5273;51.290;6.918;2023-12-07T04:53:19;2.80;99.90
10451;DHT22;5273;51.290;6.918;2023-12-07T04:55:46;2.90;99.90
10451;DHT22;5273;51.290;6.918;2023-12-07T04:58:15;2.90;99.90
10451;DHT22;5273;51.290;6.918;2023-12-07T05:00:42;3.00;99.90
10451;DHT22;5273;51.290;6.918;2023-12-07T05:03:11;2.90;99.90
10451;DHT22;5273;51.290;6.918;2023-12-07T05:05:38;2.80;99.90
10451;DHT22;5273;51.290;6.918;2023-12-07T05:08:05;3.10;99.90
10451;DHT22;5273;51.290;6.918;2023-12-07T05:10:31;2.90;99.90
10451;DHT22;5273;51.290;6.918;2023-12-07T05:12:58;2.90;99.90
10451;DHT22;5273;51.290;6.918;2023-12-07T05:15:25;3.00;99.90
10451;DHT22;5273;51.290;6.918;2023-12-07T05:17:53;2.90;99.90
10451;DHT22;5273;51.290;6.918;2023-12-07T05:20:21;2.90;99.90
10451;DHT22;5273;51.290;6.918;2023-12-07T05:22:49;3.00;99.90
10451;DHT22;5273;51.290;6.918;2023-12-07T05:25:18;3.00;99.90
10451;DHT22;5273;51.290;6.918;2023-12-07T05:27:45;2.80;99.90
10451;DHT22;5273;51.290;6.918;2023-12-07T05:30:12;3.00;99.90
10451;DHT22;5273;51.290;6.918;2023-12-07T05:32:39;3.00;99.90
10451;DHT22;5273;51.290;6.918;2023-12-07T05:35:07;2.90;99.90
10451;DHT22;5273;51.290;6.918;2023-12-07T05:37:35;3.00;99.90
10451;DHT22;5273;51.290;6.918;2023-12-07T05:40:03;2.90;99.90
10451;DHT22;5273;51.290;6.918;2023-12-07T05:42:30;2.90;99.90
10451;DHT22;5273;51.290;6.918;2023-12-07T05:44:57;2.90;99.90
10451;DHT22;5273;51.290;6.918;2023-12-07T05:47:25;2.90;99.90
10451;DHT22;5273;51.290;6.918;2023-12-07T05:49:55;2.90;99.90
10451;DHT22;5273;51.290;6.918;2023-12-07T05:52:23;3.00;99.90
10451;DHT22;5273;51.290;6.918;2023-12-07T05:54:51;2.90;99.90
10451;DHT22;5273;51.290;6.918;2023-12-07T05:57:20;2.90;99.90
10451;DHT22;5273;51.290;6.918;2023-12-07T05:59:47;2.90;99.90
10451;DHT22;5273;51.290;6.918;2023-12-07T06:02:14;2.90;99.90
10451;DHT22;5273;51.290;6.918;2023-12-07T06:04:41;2.90;99.90
10451;DHT22;5273;51.290;6.918;2023-12-07T06:07:08;2.90;99.90
10451;DHT22;5273;51.290;6.918;2023-12-07T06:09:35;2.90;99.90
10451;DHT22;5273;51.290;6.918;2023-12-07T06:12:03;2.90;99.90
10451;DHT22;5273;51.290;6.918;2023-12-07T06:14:31;2.90;99.90
10451;DHT22;5273;51.290;6.918;2023-12-07T06:16:58;2.90;99.90
10451;DHT22;5273;51.290;6.918;2023-12-07T06:19:26;2.80;99.90
10451;DHT22;5273;51.290;6.918;2023-12-07T06:21:55;2.90;99.90
10451;DHT22;5273;51.290;6.918;2023-12-07T06:24:23;2.80;99.90
10451;DHT22;5273;51.290;6.918;2023-12-07T06:26:50;2.70;99.90
10451;DHT22;5273;51.290;6.918;2023-12-07T06:29:18;2.70;99.90
10451;DHT22;5273;51.290;6.918;2023-12-07T06:31:48;2.60;99.90
10451;DHT22;5273;51.290;6.918;2023-12-07T06:34:15;2.50;99.90
10451;DHT22;5273;51.290;6.918;2023-12-07T06:36:42;2.50;99.90
10451;DHT22;5273;51.290;6.918;2023-12-07T06:39:09;2.40;99.90
10451;DHT22;5273;51.290;6.918;2023-12-07T06:41:36;2.50;99.90
10451;DHT22;5273;51.290;6.918;2023-12-07T06:44:03;2.40;99.90
10451;DHT22;5273;51.290;6.918;2023-12-07T06:46:31;2.30;99.90
10451;DHT22;5273;51.290;6.918;2023-12-07T06:48:58;2.30;99.90
10451;DHT22;5273;51.290;6.918;2023-12-07T06:51:25;2.20;99.90
10451;DHT22;5273;51.290;6.918;2023-12-07T06:53:53;2.20;99.90
10451;DHT22;5273;51.290;6.918;2023-12-07T06:56:19;2.20;99.90
10451;DHT22;5273;51.290;6.918;2023-12-07T06:58:46;2.20;99.90
10451;DHT22;5273;51.290;6.918;2023-12-07T07:01:13;2.20;99.90
10451;DHT22;5273;51.290;6.918;2023-12-07T07:03:42;2.10;99.90
10451;DHT22;5273;51.290;6.918;2023-12-07T07:06:09;2.20;99.90
10451;DHT22;5273;51.290;6.918;2023-12-07T07:08:36;2.10;99.90
10451;DHT22;5273;51.290;6.918;2023-12-07T07:11:11;1.90;99.90
10451;DHT22;5273;51.290;6.918;2023-12-07T07:13:38;2.10;99.90
10451;DHT22;5273;51.290;6.918;2023-12-07T07:16:06;2.00;99.90
10451;DHT22;5273;51.290;6.918;2023-12-07T07:18:33;2.00;99.90
10451;DHT22;5273;51.290;6.918;2023-12-07T07:21:02;1.90;99.90
10451;DHT22;5273;51.290;6.918;2023-12-07T07:23:30;1.90;99.90
10451;DHT22;5273;51.290;6.918;2023-12-07T07:25:57;1.90;99.90
10451;DHT22;5273;51.290;6.918;2023-12-07T07:28:24;1.90;99.90
10451;DHT22;5273;51.290;6.918;2023-12-07T07:30:50;2.00;99.90
10451;DHT22;5273;51.290;6.918;2023-12-07T07:33:18;2.00;99.90
10451;DHT22;5273;51.290;6.918;2023-12-07T07:35:45;2.00;99.90
10451;DHT22;5273;51.290;6.918;2023-12-07T07:38:15;2.00;99.90
10451;DHT22;5273;51.290;6.918;2023-12-07T07:40:42;2.20;99.90
10451;DHT22;5273;51.290;6.918;2023-12-07T07:43:11;2.30;99.90
10451;DHT22;5273;51.290;6.918;2023-12-07T07:45:37;2.50;99.90
10451;DHT22;5273;51.290;6.918;2023-12-07T07:48:05;2.70;99.90
10451;DHT22;5273;51.290;6.918;2023-12-07T07:50:33;3.00;99.90
10451;DHT22;5273;51.290;6.918;2023-12-07T07:53:02;3.30;99.90
10451;DHT22;5273;51.290;6.918;2023-12-07T07:55:30;3.40;99.90
10451;DHT22;5273;51.290;6.918;2023-12-07T07:57:57;3.70;99.90
10451;DHT22;5273;51.290;6.918;2023-12-07T08:00:24;4.00;99.90
10451;DHT22;5273;51.290;6.918;2023-12-07T08:02:53;4.20;99.90
10451;DHT22;5273;51.290;6.918;2023-12-07T08:05:21;4.40;99.90
10451;DHT22;5273;51.290;6.918;2023-12-07T08:07:47;4.60;99.90
10451;DHT22;5273;51.290;6.918;2023-12-07T08:10:14;4.80;99.90
10451;DHT22;5273;51.290;6.918;2023-12-07T08:12:43;5.00;99.90
10451;DHT22;5273;51.290;6.918;2023-12-07T08:15:13;5.30;99.90
10451;DHT22;5273;51.290;6.918;2023-12-07T08:17:40;5.50;99.90
10451;DHT22;5273;51.290;6.918;2023-12-07T08:20:08;6.00;99.90
10451;DHT22;5273;51.290;6.918;2023-12-07T08:22:36;5.90;99.90
10451;DHT22;5273;51.290;6.918;2023-12-07T08:25:04;6.00;99.90
10451;DHT22;5273;51.290;6.918;2023-12-07T08:27:31;6.00;99.90
10451;DHT22;5273;51.290;6.918;2023-12-07T08:30:00;6.20;99.90
10451;DHT22;5273;51.290;6.918;2023-12-07T08:32:28;6.50;99.90
10451;DHT22;5273;51.290;6.918;2023-12-07T08:34:55;6.70;99.90
10451;DHT22;5273;51.290;6.918;2023-12-07T08:37:22;6.80;99.90
10451;DHT22;5273;51.290;6.918;2023-12-07T08:39:49;7.00;99.90
10451;DHT22;5273;51.290;6.918;2023-12-07T08:42:16;7.30;99.90
10451;DHT22;5273;51.290;6.918;2023-12-07T08:44:43;7.50;99.90
10451;DHT22;5273;51.290;6.918;2023-12-07T08:47:11;7.90;99.90
10451;DHT22;5273;51.290;6.918;2023-12-07T08:49:38;8.20;99.90
10451;DHT22;5273;51.290;6.918;2023-12-07T08:52:05;8.40;99.90
10451;DHT22;5273;51.290;6.918;2023-12-07T08:54:32;8.20;99.90
10451;DHT22;5273;51.290;6.918;2023-12-07T08:57:01;7.90;99.90
10451;DHT22;5273;51.290;6.918;2023-12-07T08:59:28;7.80;99.90
10451;DHT22;5273;51.290;6.918;2023-12-07T09:01:55;8.10;99.90
10451;DHT22;5273;51.290;6.918;2023-12-07T09:04:24;8.50;99.90
10451;DHT22;5273;51.290;6.918;2023-12-07T09:06:51;8.60;99.90
10451;DHT22;5273;51.290;6.918;2023-12-07T09:09:18;8.80;99.90
10451;DHT22;5273;51.290;6.918;2023-12-07T09:11:45;9.30;99.90
10451;DHT22;5273;51.290;6.918;2023-12-07T09:14:12;10.00;99.90
10451;DHT22;5273;51.290;6.918;2023-12-07T09:16:43;10.70;99.90
10451;DHT22;5273;51.290;6.918;2023-12-07T09:19:10;11.00;99.90
10451;DHT22;5273;51.290;6.918;2023-12-07T09:21:39;11.80;99.90
10451;DHT22;5273;51.290;6.918;2023-12-07T09:24:06;12.30;98.30
10451;DHT22;5273;51.290;6.918;2023-12-07T09:26:33;12.30;97.40
10451;DHT22;5273;51.290;6.918;2023-12-07T09:29:00;12.50;98.00
10451;DHT22;5273;51.290;6.918;2023-12-07T09:31:28;12.20;97.50
10451;DHT22;5273;51.290;6.918;2023-12-07T09:33:55;12.00;96.00
10451;DHT22;5273;51.290;6.918;2023-12-07T09:36:22;11.90;95.40
10451;DHT22;5273;51.290;6.918;2023-12-07T09:38:51;11.80;94.00
10451;DHT22;5273;51.290;6.918;2023-12-07T09:41:18;12.10;94.10
10451;DHT22;5273;51.290;6.918;2023-12-07T09:43:46;12.60;92.90
10451;DHT22;5273;51.290;6.918;2023-12-07T09:46:14;13.00;91.40
10451;DHT22;5273;51.290;6.918;2023-12-07T09:48:43;13.10;90.70
10451;DHT22;5273;51.290;6.918;2023-12-07T09:51:10;12.90;90.50
10451;DHT22;5273;51.290;6.918;2023-12-07T09:53:39;12.70;92.10
10451;DHT22;5273;51.290;6.918;2023-12-07T09:56:10;13.00;91.30
10451;DHT22;5273;51.290;6.918;2023-12-07T09:58:39;13.40;90.50
10451;DHT22;5273;51.290;6.918;2023-12-07T10:01:07;13.70;87.90
10451;DHT22;5273;51.290;6.918;2023-12-07T10:03:34;13.50;85.40
10451;DHT22;5273;51.290;6.918;2023-12-07T10:06:01;13.40;85.60
10451;DHT22;5273;51.290;6.918;2023-12-07T10:08:30;13.60;89.90
10451;DHT22;5273;51.290;6.918;2023-12-07T10:11:06;14.00;85.90
10451;DHT22;5273;51.290;6.918;2023-12-07T10:13:36;14.30;84.10
10451;DHT22;5273;51.290;6.918;2023-12-07T10:16:10;14.50;86.10
10451;DHT22;5273;51.290;6.918;2023-12-07T10:18:39;14.90;87.20
10451;DHT22;5273;51.290;6.918;2023-12-07T10:21:07;15.30;85.30
10451;DHT22;5273;51.290;6.918;2023-12-07T10:23:36;15.30;79.60
10451;DHT22;5273;51.290;6.918;2023-12-07T10:26:05;15.30;77.80
10451;DHT22;5273;51.290;6.918;2023-12-07T10:28:35;15.20;79.10
10451;DHT22;5273;51.290;6.918;2023-12-07T10:31:01;15.50;76.60
10451;DHT22;5273;51.290;6.918;2023-12-07T10:33:30;15.30;76.60
10451;DHT22;5273;51.290;6.918;2023-12-07T10:35:57;15.40;77.30
10451;DHT22;5273;51.290;6.918;2023-12-07T10:38:24;15.40;76.10
10451;DHT22;5273;51.290;6.918;2023-12-07T10:41:01;14.90;76.50
10451;DHT22;5273;51.290;6.918;2023-12-07T10:43:30;14.30;77.20
10451;DHT22;5273;51.290;6.918;2023-12-07T10:45:59;13.60;81.00
10451;DHT22;5273;51.290;6.918;2023-12-07T10:48:30;12.70;79.80
10451;DHT22;5273;51.290;6.918;2023-12-07T10:51:00;11.90;84.60
10451;DHT22;5273;51.290;6.918;2023-12-07T10:53:37;10.90;85.00
10451;DHT22;5273;51.290;6.918;2023-12-07T10:56:11;10.20;89.30
10451;DHT22;5273;51.290;6.918;2023-12-07T10:58:41;9.40;92.00
10451;DHT22;5273;51.290;6.918;2023-12-07T11:01:11;9.10;94.00
10451;DHT22;5273;51.290;6.918;2023-12-07T11:03:39;8.70;95.10
10451;DHT22;5273;51.290;6.918;2023-12-07T11:06:08;8.30;95.80
10451;DHT22;5273;51.290;6.918;2023-12-07T11:08:38;8.00;97.30
10451;DHT22;5273;51.290;6.918;2023-12-07T11:11:12;7.90;99.50
10451;DHT22;5273;51.290;6.918;2023-12-07T11:13:48;7.60;97.40
10451;DHT22;5273;51.290;6.918;2023-12-07T11:16:20;7.00;97.80
10451;DHT22;5273;51.290;6.918;2023-12-07T11:18:57;6.70;99.90
10451;DHT22;5273;51.290;6.918;2023-12-07T11:21:25;6.50;99.90
10451;DHT22;5273;51.290;6.918;2023-12-07T11:23:53;6.90;99.90
10451;DHT22;5273;51.290;6.918;2023-12-07T11:26:20;6.20;99.90
10451;DHT22;5273;51.290;6.918;2023-12-07T11:28:48;6.10;99.90
10451;DHT22;5273;51.290;6.918;2023-12-07T11:31:17;6.30;99.90
10451;DHT22;5273;51.290;6.918;2023-12-07T11:33:44;6.30;99.90
10451;DHT22;5273;51.290;6.918;2023-12-07T11:36:13;6.00;99.90
10451;DHT22;5273;51.290;6.918;2023-12-07T11:41:43;6.10;99.90
10451;DHT22;5273;51.290;6.918;2023-12-07T11:44:10;6.20;99.90
10451;DHT22;5273;51.290;6.918;2023-12-07T11:46:42;6.20;99.90
10451;DHT22;5273;51.290;6.918;2023-12-07T11:49:14;6.30;99.90
10451;DHT22;5273;51.290;6.918;2023-12-07T11:51:41;6.20;99.90
10451;DHT22;5273;51.290;6.918;2023-12-07T11:54:08;6.00;99.90
10451;DHT22;5273;51.290;6.918;2023-12-07T11:56:37;6.00;99.90
10451;DHT22;5273;51.290;6.918;2023-12-07T11:59:04;6.10;99.90
10451;DHT22;5273;51.290;6.918;2023-12-07T12:01:31;5.90;99.90
10451;DHT22;5273;51.290;6.918;2023-12-07T12:04:05;5.90;99.90
10451;DHT22;5273;51.290;6.918;2023-12-07T12:06:34;5.90;99.90
10451;DHT22;5273;51.290;6.918;2023-12-07T12:09:01;5.70;99.90
10451;DHT22;5273;51.290;6.918;2023-12-07T12:11:28;5.50;99.90
10451;DHT22;5273;51.290;6.918;2023-12-07T12:13:55;5.60;99.90
10451;DHT22;5273;51.290;6.918;2023-12-07T12:16:23;5.50;99.90
10451;DHT22;5273;51.290;6.918;2023-12-07T12:18:50;5.50;99.90
10451;DHT22;5273;51.290;6.918;2023-12-07T12:21:20;5.50;99.90
10451;DHT22;5273;51.290;6.918;2023-12-07T12:23:49;5.50;99.90
10451;DHT22;5273;51.290;6.918;2023-12-07T12:26:21;5.40;99.90
10451;DHT22;5273;51.290;6.918;2023-12-07T12:28:49;5.60;99.90
10451;DHT22;5273;51.290;6.918;2023-12-07T12:31:18;5.80;99.90
10451;DHT22;5273;51.290;6.918;2023-12-07T12:33:50;5.60;99.90
10451;DHT22;5273;51.290;6.918;2023-12-07T12:36:20;5.50;99.90
10451;DHT22;5273;51.290;6.918;2023-12-07T12:38:49;5.50;99.90
10451;DHT22;5273;51.290;6.918;2023-12-07T12:41:21;5.40;99.90
10451;DHT22;5273;51.290;6.918;2023-12-07T12:43:51;5.30;99.90
10451;DHT22;5273;51.290;6.918;2023-12-07T12:46:19;5.40;99.90
10451;DHT22;5273;51.290;6.918;2023-12-07T12:48:54;5.40;99.90
10451;DHT22;5273;51.290;6.918;2023-12-07T12:51:28;5.40;99.90
10451;DHT22;5273;51.290;6.918;2023-12-07T12:53:59;5.40;99.90
10451;DHT22;5273;51.290;6.918;2023-12-07T12:56:27;5.50;99.90
10451;DHT22;5273;51.290;6.918;2023-12-07T12:58:55;5.30;99.90
10451;DHT22;5273;51.290;6.918;2023-12-07T13:01:23;5.30;99.90
10451;DHT22;5273;51.290;6.918;2023-12-07T13:03:50;5.40;99.90
10451;DHT22;5273;51.290;6.918;2023-12-07T13:06:18;5.40;99.90
10451;DHT22;5273;51.290;6.918;2023-12-07T13:08:47;5.40;99.90
10451;DHT22;5273;51.290;6.918;2023-12-07T13:11:20;5.40;99.90
10451;DHT22;5273;51.290;6.918;2023-12-07T13:13:47;5.40;99.90
10451;DHT22;5273;51.290;6.918;2023-12-07T13:16:16;5.50;99.90
10451;DHT22;5273;51.290;6.918;2023-12-07T13:18:46;5.50;99.90
10451;DHT22;5273;51.290;6.918;2023-12-07T13:21:13;5.50;99.90
10451;DHT22;5273;51.290;6.918;2023-12-07T13:23:46;5.50;99.90
10451;DHT22;5273;51.290;6.918;2023-12-07T13:26:14;5.40;99.90
10451;DHT22;5273;51.290;6.918;2023-12-07T13:28:41;5.30;99.90
10451;DHT22;5273;51.290;6.918;2023-12-07T13:31:08;5.30;99.90
10451;DHT22;5273;51.290;6.918;2023-12-07T13:33:38;5.20;99.90
10451;DHT22;5273;51.290;6.918;2023-12-07T13:36:06;5.20;99.90
10451;DHT22;5273;51.290;6.918;2023-12-07T13:38:34;5.20;99.90
10451;DHT22;5273;51.290;6.918;2023-12-07T13:41:05;5.30;99.90
10451;DHT22;5273;51.290;6.918;2023-12-07T13:43:33;5.20;99.90
10451;DHT22;5273;51.290;6.918;2023-12-07T13:46:01;5.30;99.90
10451;DHT22;5273;51.290;6.918;2023-12-07T13:48:32;5.30;99.90
10451;DHT22;5273;51.290;6.918;2023-12-07T13:50:59;5.30;99.90
10451;DHT22;5273;51.290;6.918;2023-12-07T13:53:27;5.10;99.90
10451;DHT22;5273;51.290;6.918;2023-12-07T13:55:54;5.30;99.90
10451;DHT22;5273;51.290;6.918;2023-12-07T13:58:23;5.20;99.90
10451;DHT22;5273;51.290;6.918;2023-12-07T14:00:50;5.20;99.90
10451;DHT22;5273;51.290;6.918;2023-12-07T14:03:17;5.10;99.90
10451;DHT22;5273;51.290;6.918;2023-12-07T14:05:44;5.10;99.90
10451;DHT22;5273;51.290;6.918;2023-12-07T14:08:13;5.00;99.90
10451;DHT22;5273;51.290;6.918;2023-12-07T14:10:40;5.00;99.90
10451;DHT22;5273;51.290;6.918;2023-12-07T14:13:07;5.00;99.90
10451;DHT22;5273;51.290;6.918;2023-12-07T14:15:38;5.00;99.90
10451;DHT22;5273;51.290;6.918;2023-12-07T14:18:07;4.90;99.90
10451;DHT22;5273;51.290;6.918;2023-12-07T14:20:34;4.80;99.90
10451;DHT22;5273;51.290;6.918;2023-12-07T14:23:02;4.80;99.90
10451;DHT22;5273;51.290;6.918;2023-12-07T14:25:31;4.70;99.90
10451;DHT22;5273;51.290;6.918;2023-12-07T14:27:59;4.70;99.90
10451;DHT22;5273;51.290;6.918;2023-12-07T14:30:26;4.60;99.90
10451;DHT22;5273;51.290;6.918;2023-12-07T14:32:55;4.60;99.90
10451;DHT22;5273;51.290;6.918;2023-12-07T14:35:22;4.50;99.90
10451;DHT22;5273;51.290;6.918;2023-12-07T14:37:49;4.50;99.90
10451;DHT22;5273;51.290;6.918;2023-12-07T14:40:17;4.50;99.90
10451;DHT22;5273;51.290;6.918;2023-12-07T14:42:44;4.50;99.90
10451;DHT22;5273;51.290;6.918;2023-12-07T14:45:12;4.40;99.90
10451;DHT22;5273;51.290;6.918;2023-12-07T14:47:40;4.40;99.90
10451;DHT22;5273;51.290;6.918;2023-12-07T14:50:09;4.30;99.90
10451;DHT22;5273;51.290;6.918;2023-12-07T14:52:37;4.30;99.90
10451;DHT22;5273;51.290;6.918;2023-12-07T14:55:05;4.30;99.90
10451;DHT22;5273;51.290;6.918;2023-12-07T14:57:32;4.20;99.90
10451;DHT22;5273;51.290;6.918;2023-12-07T14:59:59;4.20;99.90
10451;DHT22;5273;51.290;6.918;2023-12-07T15:02:26;4.10;99.90
10451;DHT22;5273;51.290;6.918;2023-12-07T15:04:52;4.00;99.90
10451;DHT22;5273;51.290;6.918;2023-12-07T15:07:24;4.00;99.90
10451;DHT22;5273;51.290;6.918;2023-12-07T15:09:51;3.90;99.90
10451;DHT22;5273;51.290;6.918;2023-12-07T15:12:17;3.90;99.90
10451;DHT22;5273;51.290;6.918;2023-12-07T15:14:48;3.80;99.90
10451;DHT22;5273;51.290;6.918;2023-12-07T15:17:14;3.80;99.90
10451;DHT22;5273;51.290;6.918;2023-12-07T15:19:41;3.70;99.90
10451;DHT22;5273;51.290;6.918;2023-12-07T15:22:09;3.70;99.90
10451;DHT22;5273;51.290;6.918;2023-12-07T15:24:39;3.60;99.90
10451;DHT22;5273;51.290;6.918;2023-12-07T15:27:07;3.60;99.90
10451;DHT22;5273;51.290;6.918;2023-12-07T15:29:34;3.60;99.90
10451;DHT22;5273;51.290;6.918;2023-12-07T15:32:03;3.50;99.90
10451;DHT22;5273;51.290;6.918;2023-12-07T15:34:30;3.50;99.90
10451;DHT22;5273;51.290;6.918;2023-12-07T15:36:58;3.50;99.90
10451;DHT22;5273;51.290;6.918;2023-12-07T15:39:25;3.40;99.90
10451;DHT22;5273;51.290;6.918;2023-12-07T15:41:53;3.40;99.90
10451;DHT22;5273;51.290;6.918;2023-12-07T15:44:20;3.40;99.90
10451;DHT22;5273;51.290;6.918;2023-12-07T15:46:47;3.30;99.90
10451;DHT22;5273;51.290;6.918;2023-12-07T15:49:15;3.30;99.90
10451;DHT22;5273;51.290;6.918;2023-12-07T15:51:45;3.20;99.90
10451;DHT22;5273;51.290;6.918;2023-12-07T15:54:13;3.30;99.90
10451;DHT22;5273;51.290;6.918;2023-12-07T15:56:40;3.20;99.90
10451;DHT22;5273;51.290;6.918;2023-12-07T15:59:11;3.30;99.90
10451;DHT22;5273;51.290;6.918;2023-12-07T16:01:38;3.30;99.90
10451;DHT22;5273;51.290;6.918;2023-12-07T16:04:05;3.30;99.90
10451;DHT22;5273;51.290;6.918;2023-12-07T16:06:36;3.30;99.90
10451;DHT22;5273;51.290;6.918;2023-12-07T16:09:04;3.30;99.90